OEGN

Jizan Regional Airport

Jizan, Saudi Arabia
TAF OEGN 182300Z 1900/2006 VRB03KT 8000 FEW030 TEMPO 1900/1912 5000 DU BECMG 1906/1908 23012KT
Issued Valid From Valid To
Jan-18 @ 23:00 UTC
(3 hours ago)
Jan-19 @ 00:00 UTC
(2 hours ago)
Jan-20 @ 06:00 UTC
(-1 days ago)
Jan-19 @ 00:00 to Jan-19 @ 06:00
TAF OEGN 182300Z 1900/2006 VRB03KT 8000 FEW030
Wind Visibility Clouds
Variable at 3 knots 7,998 meters
  • Few at 3,000' AGL
Temporary Jan-19 @ 00:00 to Jan-19 @ 12:00
TEMPO 1900/1912 5000 DU
Visibility Conditions
5,005 meters
  • Dust
Becoming Jan-19 @ 06:00 to Jan-20 @ 06:00
BECMG 1906/1908 23012KT
Wind Visibility Clouds
230° at 12 knots 7,998 meters
  • Few at 3,000' AGL
TAF OEGN 182300Z 1900/2006 VRB03KT 8000 FEW030 TEMPO 1900/1912 5000 DU BECMG 1906/1908 23012KT
Issued Jan-18 @ 23:00 UTC
(3 hours ago)
Valid From Jan-19 @ 00:00 UTC
(2 hours ago)
Valid To Jan-20 @ 06:00 UTC
(-1 days ago)
Jan-19 @ 00:00 - Jan-19 @ 06:00
Wind Visibility
Variable at 3 knots 7,998 meters
Clouds
  • Few at 3,000' AGL
Temporary Jan-19 @ 00:00 - Jan-19 @ 12:00
Conditions
  • Dust
Becoming Jan-19 @ 06:00 - Jan-20 @ 06:00
Wind Visibility
230° at 12 knots 7,998 meters
Clouds
  • Few at 3,000' AGL